Time;durP1;ratioP1;P1;durP2;ratioP2;P2;SDS_P1;SDS_P2;PMS_P1;PMS_P2;Temp;Humidity;BMP_temperature;BMP_pressure;BME280_temperature;BME280_humidity;BME280_pressure;Samples;Min_cycle;Max_cycle;Signal;HPM_P1;HPM_P2
2022/08/29 00:00:55;;;;;;;7.47;3.45;;;;;;;;;;5056009;28;20032;-81
2022/08/29 00:03:20;;;;;;;4.93;3.40;;;;;;;;;;5038305;28;20465;-82
2022/08/29 00:05:46;;;;;;;6.45;3.50;;;;;;;;;;5055798;28;20049;-81
2022/08/29 00:08:11;;;;;;;4.75;3.20;;;;;;;;;;5055835;28;20135;-81
2022/08/29 00:10:37;;;;;;;4.43;3.10;;;;;;;;;;5037484;28;20057;-81
2022/08/29 00:13:05;;;;;;;5.10;3.40;;;;;;;;;;5056103;28;20108;-81
2022/08/29 00:15:30;;;;;;;5.35;3.20;;;;;;;;;;5019651;28;20100;-81
2022/08/29 00:17:56;;;;;;;3.90;3.00;;;;;;;;;;5037847;28;20036;-82
2022/08/29 00:20:25;;;;;;;6.63;3.30;;;;;;;;;;5037300;28;20062;-81
2022/08/29 00:22:50;;;;;;;4.55;3.22;;;;;;;;;;5037655;28;20033;-81
2022/08/29 00:25:16;;;;;;;3.85;3.28;;;;;;;;;;5055336;28;20033;-80
2022/08/29 00:27:41;;;;;;;5.00;3.10;;;;;;;;;;5037844;28;20041;-82
2022/08/29 00:30:08;;;;;;;4.97;3.10;;;;;;;;;;5037620;28;20167;-81
2022/08/29 00:32:35;;;;;;;6.20;3.50;;;;;;;;;;5055543;28;20040;-81
2022/08/29 00:35:02;;;;;;;3.83;3.25;;;;;;;;;;5055042;28;20041;-82
2022/08/29 00:37:28;;;;;;;7.90;3.30;;;;;;;;;;5037462;28;20170;-81
2022/08/29 00:39:53;;;;;;;6.53;3.47;;;;;;;;;;5055454;28;20538;-82
2022/08/29 00:42:19;;;;;;;6.57;3.38;;;;;;;;;;5055835;28;20116;-81
2022/08/29 00:44:45;;;;;;;8.90;3.13;;;;;;;;;;5054983;28;20500;-81
2022/08/29 00:47:15;;;;;;;4.60;3.42;;;;;;;;;;5036701;28;20082;-81
2022/08/29 00:49:45;;;;;;;4.28;3.17;;;;;;;;;;5054415;28;20094;-80
2022/08/29 00:52:18;;;;;;;5.90;3.30;;;;;;;;;;5054320;28;20059;-80
2022/08/29 00:54:48;;;;;;;4.35;3.08;;;;;;;;;;5054635;28;20127;-81
2022/08/29 00:57:16;;;;;;;4.15;3.17;;;;;;;;;;5054774;28;20489;-81
2022/08/29 00:59:42;;;;;;;6.28;3.67;;;;;;;;;;5054327;28;20028;-80
2022/08/29 01:02:09;;;;;;;4.47;3.70;;;;;;;;;;5054879;28;20041;-81
2022/08/29 01:04:38;;;;;;;4.88;3.60;;;;;;;;;;5054111;28;20048;-81
2022/08/29 01:07:06;;;;;;;4.13;3.20;;;;;;;;;;5054921;28;20033;-80
2022/08/29 01:09:35;;;;;;;5.63;3.70;;;;;;;;;;5035828;28;20128;-81
2022/08/29 01:12:16;;;;;;;4.70;3.58;;;;;;;;;;5054747;28;20041;-81
2022/08/29 01:14:49;;;;;;;4.38;3.42;;;;;;;;;;5054214;28;20029;-81
2022/08/29 01:17:26;;;;;;;6.15;3.40;;;;;;;;;;5054617;28;20106;-79
2022/08/29 01:20:23;;;;;;;9.60;3.60;;;;;;;;;;5054260;28;20414;-80
2022/08/29 01:23:20;;;;;;;5.28;3.30;;;;;;;;;;5036859;28;20179;-81
2022/08/29 01:25:48;;;;;;;5.47;3.28;;;;;;;;;;5054395;28;20431;-80
2022/08/29 01:28:18;;;;;;;6.05;3.30;;;;;;;;;;5035987;28;20125;-80
2022/08/29 01:31:08;;;;;;;6.35;3.72;;;;;;;;;;5054366;28;20043;-81
2022/08/29 01:33:38;;;;;;;5.15;3.40;;;;;;;;;;5054103;28;20041;-81
2022/08/29 01:36:04;;;;;;;5.10;3.30;;;;;;;;;;5054195;28;20060;-81
2022/08/29 01:38:31;;;;;;;6.15;3.30;;;;;;;;;;5054112;28;20032;-81
2022/08/29 01:40:58;;;;;;;3.97;3.15;;;;;;;;;;5053973;28;20065;-82
2022/08/29 01:43:25;;;;;;;7.53;3.08;;;;;;;;;;5053986;28;20056;-80
2022/08/29 01:45:51;;;;;;;6.40;3.45;;;;;;;;;;5035957;28;20029;-82
2022/08/29 01:48:18;;;;;;;7.10;3.70;;;;;;;;;;5036226;28;20406;-81
2022/08/29 01:50:45;;;;;;;5.25;3.30;;;;;;;;;;5054364;28;20057;-81
2022/08/29 01:53:11;;;;;;;4.28;3.13;;;;;;;;;;5036363;28;20033;-81
2022/08/29 01:55:37;;;;;;;3.95;3.22;;;;;;;;;;5054164;28;20486;-80
2022/08/29 01:58:03;;;;;;;4.55;3.47;;;;;;;;;;5053731;28;20497;-80
2022/08/29 02:00:29;;;;;;;4.15;3.22;;;;;;;;;;5053960;28;20056;-81
2022/08/29 02:02:55;;;;;;;5.28;3.38;;;;;;;;;;5036033;28;20052;-81
2022/08/29 02:05:22;;;;;;;3.83;3.20;;;;;;;;;;5053931;28;20025;-81
2022/08/29 02:07:48;;;;;;;4.65;3.70;;;;;;;;;;5036144;28;20079;-81
2022/08/29 02:10:14;;;;;;;7.25;3.28;;;;;;;;;;5035697;28;20044;-81
2022/08/29 02:12:42;;;;;;;5.03;3.33;;;;;;;;;;5019623;28;20033;-80
2022/08/29 02:15:08;;;;;;;5.70;3.90;;;;;;;;;;5053766;28;20052;-82
2022/08/29 02:17:34;;;;;;;7.97;3.90;;;;;;;;;;5036070;28;20061;-81
2022/08/29 02:20:00;;;;;;;7.90;3.58;;;;;;;;;;5053447;28;20294;-81
2022/08/29 02:22:26;;;;;;;5.75;3.25;;;;;;;;;;5053875;28;20565;-81
2022/08/29 02:24:51;;;;;;;4.82;3.40;;;;;;;;;;5035494;28;20066;-81
2022/08/29 02:27:17;;;;;;;4.25;3.55;;;;;;;;;;5053425;28;20037;-81
2022/08/29 02:29:42;;;;;;;6.15;3.55;;;;;;;;;;5035831;28;20025;-82
2022/08/29 02:32:10;;;;;;;4.78;3.60;;;;;;;;;;5053856;28;20094;-80
2022/08/29 02:34:36;;;;;;;6.25;3.38;;;;;;;;;;5053266;28;20025;-81
2022/08/29 02:37:03;;;;;;;6.20;3.40;;;;;;;;;;5036410;28;20397;-81
2022/08/29 02:39:29;;;;;;;5.50;3.20;;;;;;;;;;5055739;28;20094;-82
2022/08/29 02:41:55;;;;;;;7.20;3.03;;;;;;;;;;5057851;28;20140;-80
2022/08/29 02:44:21;;;;;;;3.85;3.22;;;;;;;;;;5057020;28;20025;-81
2022/08/29 02:46:47;;;;;;;5.28;3.35;;;;;;;;;;5039475;28;20549;-81
2022/08/29 02:49:13;;;;;;;4.25;3.17;;;;;;;;;;5039388;28;20469;-81
2022/08/29 02:51:38;;;;;;;4.20;2.90;;;;;;;;;;5039195;28;20470;-82
2022/08/29 02:54:04;;;;;;;7.65;3.20;;;;;;;;;;5039428;28;20508;-82
2022/08/29 02:56:30;;;;;;;5.30;3.08;;;;;;;;;;5039307;28;20047;-82
2022/08/29 02:58:56;;;;;;;4.43;2.90;;;;;;;;;;5056979;28;20033;-81
2022/08/29 03:01:23;;;;;;;5.78;3.22;;;;;;;;;;5056952;28;20401;-81
2022/08/29 03:03:50;;;;;;;5.15;3.53;;;;;;;;;;5056648;28;20041;-81
2022/08/29 03:06:17;;;;;;;6.35;3.72;;;;;;;;;;5038736;28;20024;-80
2022/08/29 03:08:42;;;;;;;6.30;3.72;;;;;;;;;;5056646;28;20049;-81
2022/08/29 03:11:08;;;;;;;5.90;3.55;;;;;;;;;;5038154;28;20064;-80
2022/08/29 03:13:35;;;;;;;7.60;3.63;;;;;;;;;;5038628;28;20036;-81
2022/08/29 03:16:02;;;;;;;26.25;18.45;;;;;;;;;;5022368;28;20079;-80
2022/08/29 03:18:28;;;;;;;6.15;3.70;;;;;;;;;;5021817;28;20064;-80
2022/08/29 03:20:54;;;;;;;5.32;3.92;;;;;;;;;;5098731;22;20048;-86
2022/08/29 03:23:19;;;;;;;4.47;3.70;;;;;;;;;;5064634;28;20116;-86
2022/08/29 03:25:45;;;;;;;5.80;4.15;;;;;;;;;;5064212;28;20040;-86
2022/08/29 03:28:10;;;;;;;6.50;3.90;;;;;;;;;;5063906;28;20025;-86
2022/08/29 03:30:36;;;;;;;7.43;4.00;;;;;;;;;;5063856;28;20056;-87
2022/08/29 03:33:04;;;;;;;6.32;3.97;;;;;;;;;;5063842;28;20036;-86
2022/08/29 03:35:30;;;;;;;6.60;4.25;;;;;;;;;;5063674;28;20033;-86
2022/08/29 03:37:56;;;;;;;6.43;4.00;;;;;;;;;;5063949;28;20031;-87
2022/08/29 03:40:21;;;;;;;5.97;4.35;;;;;;;;;;5045297;28;20424;-87
2022/08/29 03:42:47;;;;;;;7.57;3.97;;;;;;;;;;5063803;28;20059;-87
2022/08/29 03:45:16;;;;;;;4.43;3.55;;;;;;;;;;5062937;28;20044;-87
2022/08/29 03:47:42;;;;;;;7.38;4.25;;;;;;;;;;5062114;28;20037;-87
2022/08/29 03:50:08;;;;;;;5.57;3.83;;;;;;;;;;5061907;28;20028;-86
2022/08/29 03:52:33;;;;;;;6.25;3.67;;;;;;;;;;5062387;28;20033;-86
2022/08/29 03:54:59;;;;;;;4.75;3.50;;;;;;;;;;5064052;28;20057;-86
2022/08/29 03:57:25;;;;;;;6.05;4.28;;;;;;;;;;5063764;28;20064;-87
2022/08/29 03:59:51;;;;;;;5.18;3.60;;;;;;;;;;5063620;28;20086;-86
2022/08/29 04:02:17;;;;;;;5.57;4.03;;;;;;;;;;5062691;28;20036;-86
2022/08/29 04:07:27;;;;;;;5.90;4.50;;;;;;;;;;5063281;28;20573;-86
2022/08/29 04:09:53;;;;;;;5.65;3.97;;;;;;;;;;5061517;28;20049;-86
2022/08/29 04:12:19;;;;;;;9.57;4.68;;;;;;;;;;5060367;28;20037;-86
2022/08/29 04:14:45;;;;;;;4.53;3.65;;;;;;;;;;5062431;28;20037;-86
2022/08/29 04:17:11;;;;;;;5.68;4.00;;;;;;;;;;5062567;28;20331;-86
2022/08/29 04:19:36;;;;;;;5.85;3.83;;;;;;;;;;5062603;28;20482;-86
2022/08/29 04:22:04;;;;;;;4.78;3.33;;;;;;;;;;5061343;28;20066;-87
2022/08/29 04:24:31;;;;;;;4.68;3.63;;;;;;;;;;5061389;28;20444;-86
2022/08/29 04:26:57;;;;;;;7.60;3.70;;;;;;;;;;5062642;28;20029;-86
2022/08/29 04:29:22;;;;;;;4.35;3.55;;;;;;;;;;5061206;28;20199;-86
2022/08/29 04:31:48;;;;;;;4.53;3.53;;;;;;;;;;5060942;28;20033;-86
2022/08/29 04:34:13;;;;;;;4.93;3.45;;;;;;;;;;5062790;28;20112;-86
2022/08/29 04:36:41;;;;;;;3.92;3.40;;;;;;;;;;5061386;28;20044;-87
2022/08/29 04:39:08;;;;;;;4.68;3.60;;;;;;;;;;5060750;28;20037;-86
2022/08/29 04:41:35;;;;;;;4.55;3.40;;;;;;;;;;5061419;28;20036;-86
2022/08/29 04:44:01;;;;;;;4.93;3.80;;;;;;;;;;5061196;28;20040;-86
2022/08/29 04:46:27;;;;;;;7.35;4.15;;;;;;;;;;5061993;28;20489;-87
2022/08/29 04:48:53;;;;;;;7.93;4.40;;;;;;;;;;5044702;28;20039;-86
2022/08/29 04:51:19;;;;;;;8.48;4.20;;;;;;;;;;5060667;28;20033;-87
2022/08/29 04:53:45;;;;;;;6.47;4.50;;;;;;;;;;5062986;28;20033;-86
2022/08/29 04:56:11;;;;;;;6.50;4.70;;;;;;;;;;5062525;28;20044;-86
2022/08/29 04:58:40;;;;;;;6.20;4.40;;;;;;;;;;5062367;28;20043;-86
2022/08/29 05:01:06;;;;;;;7.13;4.40;;;;;;;;;;5061845;28;20040;-86
2022/08/29 05:03:33;;;;;;;8.02;4.30;;;;;;;;;;5062237;28;20036;-87
2022/08/29 05:06:07;;;;;;;5.93;4.55;;;;;;;;;;5062453;28;20039;-86
2022/08/29 05:08:35;;;;;;;6.72;4.70;;;;;;;;;;5062661;28;20068;-86
2022/08/29 05:11:02;;;;;;;5.90;4.50;;;;;;;;;;5062379;28;20036;-86
2022/08/29 05:13:27;;;;;;;5.93;4.25;;;;;;;;;;5061560;28;20037;-86
2022/08/29 05:15:53;;;;;;;6.00;4.10;;;;;;;;;;5060957;28;20041;-86
2022/08/29 05:18:19;;;;;;;5.30;4.10;;;;;;;;;;5062551;28;20055;-86
2022/08/29 05:20:47;;;;;;;6.93;3.95;;;;;;;;;;5062084;28;20033;-86
2022/08/29 05:23:14;;;;;;;5.55;3.97;;;;;;;;;;5061551;28;20145;-87
2022/08/29 05:25:40;;;;;;;6.22;3.90;;;;;;;;;;5060006;28;20100;-86
2022/08/29 05:28:06;;;;;;;5.28;3.67;;;;;;;;;;5061462;28;20033;-87
2022/08/29 05:30:32;;;;;;;6.03;3.85;;;;;;;;;;5057717;28;20025;-86
2022/08/29 05:32:58;;;;;;;7.15;3.50;;;;;;;;;;5059615;28;20036;-87
2022/08/29 05:35:25;;;;;;;4.22;3.67;;;;;;;;;;5058690;28;20067;-86
2022/08/29 05:37:50;;;;;;;5.30;3.60;;;;;;;;;;5057771;28;20473;-86
2022/08/29 05:40:16;;;;;;;5.28;3.80;;;;;;;;;;5058992;28;20043;-87
2022/08/29 05:42:42;;;;;;;5.18;3.33;;;;;;;;;;5060599;28;20037;-87
2022/08/29 05:45:08;;;;;;;3.75;3.15;;;;;;;;;;5061275;28;20033;-87
2022/08/29 05:47:34;;;;;;;4.20;3.25;;;;;;;;;;5060592;28;20032;-87
2022/08/29 05:49:59;;;;;;;4.40;3.17;;;;;;;;;;5059507;28;20041;-85
2022/08/29 05:52:26;;;;;;;6.35;3.25;;;;;;;;;;5057229;28;20174;-85
2022/08/29 05:54:51;;;;;;;5.88;3.25;;;;;;;;;;5057894;28;20094;-85
2022/08/29 05:57:20;;;;;;;4.57;3.13;;;;;;;;;;5057558;28;20040;-87
2022/08/29 05:59:48;;;;;;;5.20;3.30;;;;;;;;;;5055334;28;20029;-87
2022/08/29 06:02:14;;;;;;;4.47;3.00;;;;;;;;;;5057000;28;20040;-86
2022/08/29 06:04:39;;;;;;;3.97;2.92;;;;;;;;;;5057199;28;20114;-86
2022/08/29 06:07:06;;;;;;;4.28;3.20;;;;;;;;;;5056721;28;20083;-86
2022/08/29 06:09:32;;;;;;;6.53;3.22;;;;;;;;;;5056041;28;20398;-86
2022/08/29 06:11:58;;;;;;;3.80;2.78;;;;;;;;;;5055907;28;20116;-86
2022/08/29 06:14:24;;;;;;;6.45;2.70;;;;;;;;;;5057821;28;20088;-86
2022/08/29 06:16:50;;;;;;;7.80;3.13;;;;;;;;;;5060598;28;20033;-87
2022/08/29 06:19:15;;;;;;;4.55;2.80;;;;;;;;;;5059776;28;20417;-86
2022/08/29 06:21:41;;;;;;;3.38;2.80;;;;;;;;;;5058973;28;20044;-86
2022/08/29 06:24:07;;;;;;;3.25;2.50;;;;;;;;;;5061063;28;20552;-87
2022/08/29 06:26:33;;;;;;;4.43;2.90;;;;;;;;;;5062879;28;20489;-86
2022/08/29 06:29:02;;;;;;;4.55;2.75;;;;;;;;;;5061411;28;20044;-86
2022/08/29 06:31:28;;;;;;;3.90;2.80;;;;;;;;;;5043019;28;20033;-87
2022/08/29 06:33:57;;;;;;;6.50;2.70;;;;;;;;;;5061455;28;20482;-86
2022/08/29 06:36:24;;;;;;;4.13;3.00;;;;;;;;;;5059454;28;20056;-86
2022/08/29 06:38:50;;;;;;;4.40;2.60;;;;;;;;;;5060157;28;20527;-87
2022/08/29 06:41:17;;;;;;;3.40;2.58;;;;;;;;;;5062289;28;20094;-87
2022/08/29 06:43:44;;;;;;;3.88;2.65;;;;;;;;;;5062634;28;20037;-87
2022/08/29 06:46:29;;;;;;;5.40;2.63;;;;;;;;;;5064406;28;20041;-87
2022/08/29 06:48:55;;;;;;;4.05;2.50;;;;;;;;;;5063882;28;20025;-87
2022/08/29 06:51:22;;;;;;;3.55;2.78;;;;;;;;;;5061787;28;20058;-87
2022/08/29 06:53:48;;;;;;;4.63;2.60;;;;;;;;;;5059573;28;20057;-87
2022/08/29 06:56:13;;;;;;;3.45;2.55;;;;;;;;;;5063085;28;20033;-87
2022/08/29 06:58:39;;;;;;;5.10;2.90;;;;;;;;;;5057911;28;20041;-89
2022/08/29 07:01:10;;;;;;;4.75;2.70;;;;;;;;;;5056470;28;20033;-88
2022/08/29 07:03:36;;;;;;;6.10;3.28;;;;;;;;;;5063168;28;20037;-88
2022/08/29 07:06:02;;;;;;;4.32;3.05;;;;;;;;;;5057151;28;20037;-86
2022/08/29 07:08:27;;;;;;;5.68;2.90;;;;;;;;;;5054846;28;20032;-84
2022/08/29 07:10:53;;;;;;;4.78;3.42;;;;;;;;;;5055488;28;20052;-84
2022/08/29 07:13:18;;;;;;;3.72;3.13;;;;;;;;;;5037852;28;20044;-84
2022/08/29 07:15:44;;;;;;;4.07;3.00;;;;;;;;;;5054796;28;20033;-83
2022/08/29 07:18:09;;;;;;;4.10;2.67;;;;;;;;;;5054019;28;20041;-84
2022/08/29 07:20:38;;;;;;;3.92;2.60;;;;;;;;;;5055306;28;20032;-84
2022/08/29 07:23:05;;;;;;;2.90;2.40;;;;;;;;;;5053715;28;20118;-84
2022/08/29 07:25:31;;;;;;;4.60;2.85;;;;;;;;;;5054735;28;20071;-84
2022/08/29 07:27:56;;;;;;;3.65;2.60;;;;;;;;;;5054779;28;20080;-83
2022/08/29 07:30:22;;;;;;;5.07;2.65;;;;;;;;;;5054638;28;20017;-84
2022/08/29 07:32:47;;;;;;;3.03;2.45;;;;;;;;;;5055413;28;20029;-85
2022/08/29 07:35:14;;;;;;;2.88;2.30;;;;;;;;;;5054383;28;20115;-83
2022/08/29 07:37:40;;;;;;;2.92;2.45;;;;;;;;;;5055174;28;20247;-84
2022/08/29 07:40:08;;;;;;;4.90;2.63;;;;;;;;;;5054100;28;20037;-85
2022/08/29 07:42:35;;;;;;;2.95;2.42;;;;;;;;;;5055310;28;20040;-84
2022/08/29 07:45:00;;;;;;;5.15;2.60;;;;;;;;;;5055290;28;20079;-84
2022/08/29 07:47:27;;;;;;;4.13;2.45;;;;;;;;;;5055639;28;20037;-84
2022/08/29 07:49:53;;;;;;;3.22;2.50;;;;;;;;;;5054940;28;20028;-85
2022/08/29 07:52:19;;;;;;;3.35;2.50;;;;;;;;;;5055052;28;20115;-84
2022/08/29 07:54:44;;;;;;;3.22;2.60;;;;;;;;;;5054880;28;20051;-84
2022/08/29 07:57:10;;;;;;;4.20;2.60;;;;;;;;;;5054483;28;20039;-83
2022/08/29 07:59:36;;;;;;;4.80;2.67;;;;;;;;;;5053918;28;20131;-84
2022/08/29 08:02:02;;;;;;;5.25;2.65;;;;;;;;;;5054830;28;20079;-84
2022/08/29 08:04:28;;;;;;;4.43;2.60;;;;;;;;;;5054482;28;20024;-85
2022/08/29 08:06:54;;;;;;;3.15;2.50;;;;;;;;;;5054548;28;20040;-84
2022/08/29 08:09:20;;;;;;;4.18;2.70;;;;;;;;;;5053554;28;20029;-84
2022/08/29 08:11:45;;;;;;;4.60;2.30;;;;;;;;;;5052858;28;20059;-85
2022/08/29 08:14:11;;;;;;;4.13;3.10;;;;;;;;;;5054719;28;20659;-88
2022/08/29 08:16:37;;;;;;;3.55;2.80;;;;;;;;;;5053202;28;20028;-85
2022/08/29 08:19:03;;;;;;;4.50;3.00;;;;;;;;;;5054112;28;20037;-86
2022/08/29 08:21:29;;;;;;;4.05;2.88;;;;;;;;;;5052241;28;20047;-85
2022/08/29 08:23:54;;;;;;;4.05;2.40;;;;;;;;;;5052720;28;20256;-86
2022/08/29 08:26:21;;;;;;;4.32;2.90;;;;;;;;;;5053723;28;20042;-85
2022/08/29 08:28:47;;;;;;;5.30;2.70;;;;;;;;;;5052787;28;20063;-85
2022/08/29 08:31:14;;;;;;;6.07;2.58;;;;;;;;;;5053528;28;20499;-86
2022/08/29 08:33:43;;;;;;;3.47;2.70;;;;;;;;;;5053443;28;20505;-86
2022/08/29 08:36:30;;;;;;;2.92;2.40;;;;;;;;;;5052268;28;20036;-84
2022/08/29 08:38:58;;;;;;;4.50;2.45;;;;;;;;;;5053498;28;20090;-86
2022/08/29 08:41:31;;;;;;;3.15;2.70;;;;;;;;;;5051995;28;20091;-85
2022/08/29 08:44:01;;;;;;;3.40;2.80;;;;;;;;;;5052408;28;20044;-85
2022/08/29 08:46:41;;;;;;;2.55;2.33;;;;;;;;;;5053563;28;20489;-85
2022/08/29 08:49:19;;;;;;;4.45;3.22;;;;;;;;;;5053658;28;20033;-85
2022/08/29 08:51:52;;;;;;;6.45;2.97;;;;;;;;;;5051993;28;20043;-85
2022/08/29 08:54:22;;;;;;;4.40;2.97;;;;;;;;;;5053408;28;20078;-85
2022/08/29 08:56:53;;;;;;;5.00;3.17;;;;;;;;;;5052688;28;20037;-86
2022/08/29 08:59:41;;;;;;;5.03;3.40;;;;;;;;;;5051176;28;20068;-85
2022/08/29 09:02:07;;;;;;;5.47;3.40;;;;;;;;;;5050136;28;20389;-85
2022/08/29 09:04:57;;;;;;;5.10;3.75;;;;;;;;;;5052209;28;20545;-84
2022/08/29 09:07:54;;;;;;;5.18;3.70;;;;;;;;;;5051892;28;20031;-84
2022/08/29 09:10:53;;;;;;;5.85;3.25;;;;;;;;;;5052818;28;20036;-86
2022/08/29 09:13:25;;;;;;;4.75;3.22;;;;;;;;;;5053063;28;20033;-85
2022/08/29 09:15:53;;;;;;;4.72;3.55;;;;;;;;;;5052882;28;20037;-85
2022/08/29 09:18:28;;;;;;;5.68;3.53;;;;;;;;;;5053146;28;20041;-86
2022/08/29 09:20:53;;;;;;;7.32;3.67;;;;;;;;;;5054463;28;20033;-85
2022/08/29 09:23:38;;;;;;;5.72;3.60;;;;;;;;;;5053395;28;20040;-87
2022/08/29 09:26:04;;;;;;;5.32;3.70;;;;;;;;;;5053426;28;20037;-86
2022/08/29 09:28:30;;;;;;;4.93;3.50;;;;;;;;;;5054121;28;20485;-86
2022/08/29 09:31:13;;;;;;;6.03;3.65;;;;;;;;;;5052572;28;20036;-86
2022/08/29 09:33:44;;;;;;;;;;;;;;;;;;5035573;28;20090;-84
2022/08/29 09:36:15;;;;;;;5.53;3.90;;;;;;;;;;5055174;28;19919;-86
2022/08/29 09:38:40;;;;;;;5.30;3.72;;;;;;;;;;5034623;28;20123;-86
2022/08/29 09:41:07;;;;;;;5.55;4.22;;;;;;;;;;5053282;28;20549;-86
2022/08/29 09:43:45;;;;;;;8.35;4.10;;;;;;;;;;5052381;28;20086;-86
2022/08/29 09:46:19;;;;;;;5.85;3.85;;;;;;;;;;5055550;28;20071;-86
2022/08/29 09:48:48;;;;;;;6.13;3.42;;;;;;;;;;5055187;28;20033;-85
2022/08/29 09:51:28;;;;;;;8.20;4.13;;;;;;;;;;5055640;28;20033;-86
2022/08/29 09:54:09;;;;;;;6.30;4.05;;;;;;;;;;5055318;28;20037;-84
2022/08/29 09:56:37;;;;;;;7.25;4.10;;;;;;;;;;5056967;28;20052;-86
2022/08/29 09:59:10;;;;;;;6.70;4.40;;;;;;;;;;5056899;28;20032;-86
2022/08/29 10:01:37;;;;;;;6.32;5.28;;;;;;;;;;5056149;28;20033;-86
2022/08/29 10:04:05;;;;;;;7.07;4.70;;;;;;;;;;5057942;28;20060;-85
2022/08/29 10:06:38;;;;;;;6.43;4.25;;;;;;;;;;5055014;28;20079;-86
2022/08/29 10:09:22;;;;;;;6.68;4.20;;;;;;;;;;5054770;28;20478;-85
2022/08/29 10:11:54;;;;;;;7.68;4.18;;;;;;;;;;5056027;28;20085;-86
2022/08/29 10:14:29;;;;;;;6.43;4.82;;;;;;;;;;5055563;28;20075;-86
2022/08/29 10:20:01;;;;;;;8.48;4.93;;;;;;;;;;5052929;28;20609;-86
2022/08/29 10:22:41;;;;;;;6.45;4.47;;;;;;;;;;5056025;28;20467;-85
2022/08/29 10:25:27;;;;;;;8.45;4.72;;;;;;;;;;5053370;28;20044;-85
2022/08/29 10:28:19;;;;;;;6.93;4.82;;;;;;;;;;5053313;28;20041;-84
2022/08/29 10:31:04;;;;;;;6.47;4.47;;;;;;;;;;5054506;28;20028;-85
2022/08/29 10:33:29;;;;;;;8.23;4.90;;;;;;;;;;5055057;28;20397;-86
2022/08/29 10:35:59;;;;;;;7.47;4.90;;;;;;;;;;5056368;28;20051;-85
2022/08/29 10:39:03;;;;;;;6.95;4.80;;;;;;;;;;5056190;28;20179;-85
2022/08/29 10:42:06;;;;;;;7.07;5.28;;;;;;;;;;5052818;28;20045;-86
2022/08/29 10:45:01;;;;;;;6.57;5.00;;;;;;;;;;5053641;28;20078;-85
2022/08/29 10:47:49;;;;;;;6.97;5.15;;;;;;;;;;5069094;28;20512;-85
2022/08/29 10:50:30;;;;;;;6.82;4.95;;;;;;;;;;5054991;28;20023;-86
2022/08/29 10:53:04;;;;;;;7.57;4.60;;;;;;;;;;5054856;28;20056;-85
2022/08/29 10:55:54;;;;;;;6.30;5.03;;;;;;;;;;5054287;28;20045;-87
2022/08/29 10:58:36;;;;;;;6.93;4.45;;;;;;;;;;5056513;28;20037;-88
2022/08/29 11:01:24;;;;;;;5.70;4.47;;;;;;;;;;5056393;28;20509;-86
2022/08/29 11:04:02;;;;;;;8.63;4.90;;;;;;;;;;5038476;28;20040;-86
2022/08/29 11:06:33;;;;;;;6.57;4.43;;;;;;;;;;5057837;28;20083;-86
2022/08/29 11:09:04;;;;;;;7.13;4.45;;;;;;;;;;5057688;28;20029;-86
2022/08/29 11:11:32;;;;;;;6.03;4.55;;;;;;;;;;5054684;28;20086;-89
2022/08/29 11:14:24;;;;;;;5.85;4.43;;;;;;;;;;5054395;28;20052;-84
2022/08/29 11:16:53;;;;;;;6.10;4.43;;;;;;;;;;5046652;28;20486;-86
2022/08/29 11:19:25;;;;;;;6.80;4.00;;;;;;;;;;5038442;28;20037;-84
2022/08/29 11:22:34;;;;;;;7.35;4.07;;;;;;;;;;5056068;28;20537;-86
2022/08/29 11:25:15;;;;;;;9.00;4.47;;;;;;;;;;5048046;28;20053;-86
2022/08/29 11:28:07;;;;;;;7.63;4.47;;;;;;;;;;5057464;28;20041;-86
2022/08/29 11:31:11;;;;;;;7.65;4.72;;;;;;;;;;5040466;28;20032;-86
2022/08/29 11:34:02;;;;;;;7.05;4.00;;;;;;;;;;5018654;28;20049;-86
2022/08/29 11:36:50;;;;;;;4.78;4.03;;;;;;;;;;5035827;28;20493;-86
2022/08/29 11:39:44;;;;;;;5.80;4.20;;;;;;;;;;5035799;28;20064;-85
2022/08/29 11:42:11;;;;;;;9.27;4.45;;;;;;;;;;5018987;28;20475;-86
2022/08/29 11:44:47;;;;;;;6.55;4.53;;;;;;;;;;5034911;28;20037;-86
2022/08/29 11:47:31;;;;;;;7.45;4.40;;;;;;;;;;5036218;28;20041;-84
2022/08/29 11:50:06;;;;;;;7.50;4.07;;;;;;;;;;5035777;28;20033;-86
2022/08/29 11:52:33;;;;;;;6.78;4.13;;;;;;;;;;5035863;28;20037;-85
2022/08/29 11:54:58;;;;;;;5.35;4.15;;;;;;;;;;5034321;28;20029;-86
2022/08/29 11:57:30;;;;;;;5.55;3.88;;;;;;;;;;5035479;28;20044;-86
2022/08/29 11:59:58;;;;;;;7.20;4.10;;;;;;;;;;5036544;28;20033;-87
2022/08/29 12:02:26;;;;;;;5.78;4.00;;;;;;;;;;5037187;28;20033;-86
2022/08/29 12:05:01;;;;;;;7.00;4.03;;;;;;;;;;5035254;28;20034;-86
2022/08/29 12:07:42;;;;;;;5.80;4.28;;;;;;;;;;5037350;28;20552;-87
2022/08/29 12:10:24;;;;;;;7.03;4.30;;;;;;;;;;5034857;28;20034;-87
2022/08/29 12:12:55;;;;;;;6.28;4.28;;;;;;;;;;5036101;28;20036;-87
2022/08/29 12:15:26;;;;;;;7.80;4.20;;;;;;;;;;5035204;28;20437;-90
2022/08/29 12:18:15;;;;;;;8.55;4.80;;;;;;;;;;5018638;28;20037;-87
2022/08/29 12:20:54;;;;;;;5.57;3.97;;;;;;;;;;5037498;28;20132;-87
2022/08/29 12:23:27;;;;;;;7.68;4.40;;;;;;;;;;5040593;28;20107;-87
2022/08/29 12:26:01;;;;;;;5.50;3.97;;;;;;;;;;5039161;28;20060;-88
2022/08/29 12:28:37;;;;;;;5.35;4.05;;;;;;;;;;5038277;28;20045;-88
2022/08/29 12:31:10;;;;;;;6.20;4.65;;;;;;;;;;5038886;28;20025;-87
2022/08/29 12:34:03;;;;;;;7.57;4.20;;;;;;;;;;5040068;28;20102;-88
2022/08/29 12:36:38;;;;;;;7.80;4.03;;;;;;;;;;5037503;28;20460;-88
2022/08/29 12:39:24;;;;;;;6.32;4.10;;;;;;;;;;5038481;28;20041;-87
2022/08/29 12:42:10;;;;;;;5.75;4.00;;;;;;;;;;5039004;28;20030;-87
2022/08/29 12:44:44;;;;;;;6.88;4.25;;;;;;;;;;5008469;28;20041;-88
2022/08/29 12:47:19;;;;;;;4.82;4.03;;;;;;;;;;5037569;28;20051;-89
2022/08/29 12:49:50;;;;;;;5.32;4.10;;;;;;;;;;5039471;28;20025;-87
2022/08/29 12:52:36;;;;;;;7.70;4.32;;;;;;;;;;5056093;28;20029;-87
2022/08/29 12:55:39;;;;;;;6.38;3.90;;;;;;;;;;5054610;28;20029;-87
2022/08/29 12:58:06;;;;;;;5.93;4.20;;;;;;;;;;4992229;28;20560;-87
2022/08/29 13:00:33;;;;;;;5.88;4.30;;;;;;;;;;5042673;28;20053;-86
2022/08/29 13:03:04;;;;;;;6.50;4.35;;;;;;;;;;5054224;28;20048;-88
2022/08/29 13:05:34;;;;;;;7.53;4.20;;;;;;;;;;5052523;28;20037;-88
2022/08/29 13:08:06;;;;;;;6.82;3.90;;;;;;;;;;5056459;28;20033;-88
2022/08/29 13:10:37;;;;;;;5.63;4.13;;;;;;;;;;5053750;28;20028;-88
2022/08/29 13:13:10;;;;;;;6.20;3.88;;;;;;;;;;5056502;28;20032;-88
2022/08/29 13:15:35;;;;;;;6.25;4.10;;;;;;;;;;5054049;28;20032;-88
2022/08/29 13:18:02;;;;;;;5.05;4.10;;;;;;;;;;5056843;28;20524;-88
2022/08/29 13:20:36;;;;;;;5.00;3.92;;;;;;;;;;5056070;28;20124;-88
2022/08/29 13:23:26;;;;;;;5.97;3.90;;;;;;;;;;5055067;28;20029;-89
2022/08/29 13:25:53;;;;;;;5.32;3.80;;;;;;;;;;5054520;28;20067;-86
2022/08/29 13:28:19;;;;;;;5.75;4.00;;;;;;;;;;5057423;28;20047;-86
2022/08/29 13:31:03;;;;;;;4.80;3.85;;;;;;;;;;5058123;28;20033;-87
2022/08/29 13:33:29;;;;;;;7.32;4.13;;;;;;;;;;5055553;28;20091;-89
2022/08/29 13:35:54;;;;;;;6.82;4.18;;;;;;;;;;5052648;28;20037;-88
2022/08/29 13:38:24;;;;;;;6.00;4.15;;;;;;;;;;5054139;28;20044;-88
2022/08/29 13:40:54;;;;;;;6.15;3.92;;;;;;;;;;5054766;28;20036;-88
2022/08/29 13:43:41;;;;;;;5.35;4.00;;;;;;;;;;5055906;28;20037;-87
2022/08/29 13:46:17;;;;;;;5.32;3.80;;;;;;;;;;5055304;28;20474;-87
2022/08/29 13:48:43;;;;;;;4.40;3.85;;;;;;;;;;5053730;28;20750;-88
2022/08/29 13:51:08;;;;;;;4.75;3.65;;;;;;;;;;5054147;28;20069;-88
2022/08/29 13:53:34;;;;;;;5.60;3.92;;;;;;;;;;5053872;28;20032;-88
2022/08/29 13:56:00;;;;;;;7.88;3.90;;;;;;;;;;5054026;28;20036;-88
2022/08/29 13:58:28;;;;;;;5.97;3.95;;;;;;;;;;5053607;28;20070;-88
2022/08/29 14:00:54;;;;;;;7.45;4.18;;;;;;;;;;5035820;28;20041;-88
2022/08/29 14:03:21;;;;;;;6.25;3.90;;;;;;;;;;5053328;28;20039;-88
2022/08/29 14:05:55;;;;;;;10.65;4.10;;;;;;;;;;5052337;28;20543;-88
2022/08/29 14:08:22;;;;;;;9.30;3.90;;;;;;;;;;5052640;28;20029;-88
2022/08/29 14:10:48;;;;;;;5.75;3.80;;;;;;;;;;5052787;28;20032;-86
2022/08/29 14:13:15;;;;;;;4.65;3.60;;;;;;;;;;5056774;28;20028;-87
2022/08/29 14:15:41;;;;;;;4.45;3.70;;;;;;;;;;5059080;28;20037;-87
2022/08/29 14:18:07;;;;;;;6.50;3.67;;;;;;;;;;5055481;28;20037;-85
2022/08/29 14:20:32;;;;;;;6.03;3.70;;;;;;;;;;5053585;28;20067;-87
2022/08/29 14:22:58;;;;;;;5.45;3.70;;;;;;;;;;5053351;28;20033;-87
2022/08/29 14:25:23;;;;;;;4.50;3.58;;;;;;;;;;5054656;28;20041;-87
2022/08/29 14:27:49;;;;;;;4.55;3.30;;;;;;;;;;5053325;28;20024;-86
2022/08/29 14:30:17;;;;;;;5.43;3.80;;;;;;;;;;5054762;28;20545;-86
2022/08/29 14:32:43;;;;;;;3.72;3.35;;;;;;;;;;5053031;28;20033;-86
2022/08/29 14:35:09;;;;;;;5.38;3.40;;;;;;;;;;5055573;28;20025;-86
2022/08/29 14:37:36;;;;;;;6.22;3.28;;;;;;;;;;5058111;28;20033;-85
2022/08/29 14:40:03;;;;;;;4.93;3.33;;;;;;;;;;5055831;28;20037;-86
2022/08/29 14:42:29;;;;;;;3.83;3.15;;;;;;;;;;5057816;28;20044;-85
2022/08/29 14:44:54;;;;;;;4.03;3.22;;;;;;;;;;5057590;28;20036;-84
2022/08/29 14:47:20;;;;;;;3.97;3.15;;;;;;;;;;5057209;28;20037;-86
2022/08/29 14:49:45;;;;;;;4.30;3.20;;;;;;;;;;5057081;28;20044;-86
2022/08/29 14:52:13;;;;;;;6.47;3.50;;;;;;;;;;5057021;28;20013;-86
2022/08/29 14:54:41;;;;;;;4.20;3.20;;;;;;;;;;5057216;28;20041;-86
2022/08/29 14:57:07;;;;;;;6.43;3.20;;;;;;;;;;5057948;28;20432;-84
2022/08/29 14:59:33;;;;;;;5.70;2.83;;;;;;;;;;5055856;28;20059;-86
2022/08/29 15:01:58;;;;;;;3.85;2.78;;;;;;;;;;5057487;28;20481;-86
2022/08/29 15:04:24;;;;;;;3.47;3.00;;;;;;;;;;5057237;28;20045;-86
2022/08/29 15:06:50;;;;;;;6.30;3.80;;;;;;;;;;5057435;28;20036;-86